Time;durP1;ratioP1;P1;durP2;ratioP2;P2;SDS_P1;SDS_P2;PMS_P1;PMS_P2;Temp;Humidity;BMP_temperature;BMP_pressure;BME280_temperature;BME280_humidity;BME280_pressure;Samples;Min_cycle;Max_cycle;Signal;HPM_P1;HPM_P2
2022/12/25 09:08:29;;;;;;;1.20;0.90;;;17.00;54.40;;;;;;4964721;29;20086;-67
2022/12/25 09:10:55;;;;;;;1.10;1.00;;;17.00;54.30;;;;;;4962983;29;20039;-69
2022/12/25 09:13:21;;;;;;;1.83;1.30;;;17.00;54.40;;;;;;4964521;29;20038;-69
2022/12/25 09:15:47;;;;;;;2.00;1.50;;;17.00;54.40;;;;;;4964374;29;20023;-67
2022/12/25 09:18:12;;;;;;;1.55;1.38;;;17.00;54.40;;;;;;4964348;29;20019;-66
2022/12/25 09:20:38;;;;;;;1.33;1.23;;;17.00;54.40;;;;;;4963875;29;20027;-67
2022/12/25 09:23:04;;;;;;;1.52;1.40;;;17.00;54.40;;;;;;4964209;29;20078;-67
2022/12/25 09:25:30;;;;;;;1.10;1.02;;;17.00;54.40;;;;;;4964134;29;20050;-68
2022/12/25 09:27:56;;;;;;;1.92;1.50;;;17.00;54.40;;;;;;4964023;29;20038;-67
2022/12/25 09:30:22;;;;;;;1.23;1.13;;;17.10;54.20;;;;;;4964137;29;20034;-67
2022/12/25 09:32:48;;;;;;;1.38;1.20;;;17.10;54.30;;;;;;4964051;29;20046;-67
2022/12/25 09:35:16;;;;;;;1.48;1.38;;;17.10;54.10;;;;;;4964022;29;20043;-67
2022/12/25 09:37:42;;;;;;;1.73;1.30;;;17.10;54.20;;;;;;4964063;29;20094;-67
2022/12/25 09:40:15;;;;;;;1.60;1.25;;;17.10;54.10;;;;;;4963697;28;20058;-66
2022/12/25 09:42:42;;;;;;;1.30;1.20;;;17.20;54.10;;;;;;4964061;29;20106;-68
2022/12/25 09:45:16;;;;;;;1.35;1.20;;;17.20;53.90;;;;;;4963992;29;20019;-67
2022/12/25 09:47:46;;;;;;;1.20;1.10;;;17.30;53.80;;;;;;4964042;29;20027;-66
2022/12/25 09:50:27;;;;;;;1.52;1.40;;;17.30;53.70;;;;;;4963867;29;20327;-69
2022/12/25 09:53:27;;;;;;;3.20;1.35;;;17.30;53.70;;;;;;4963942;29;20027;-67
2022/12/25 09:56:14;;;;;;;1.40;1.13;;;17.30;53.80;;;;;;4962409;29;20043;-67
2022/12/25 09:58:40;;;;;;;1.75;1.10;;;17.30;53.70;;;;;;4963570;29;20015;-66
2022/12/25 10:01:15;;;;;;;1.30;1.20;;;17.30;53.80;;;;;;4963570;29;20027;-67
2022/12/25 10:04:00;;;;;;;1.25;1.15;;;17.30;53.80;;;;;;4963620;29;20027;-66
2022/12/25 10:06:49;;;;;;;1.33;1.20;;;17.30;53.80;;;;;;4963403;29;20030;-66
2022/12/25 10:09:20;;;;;;;1.25;1.15;;;17.30;53.60;;;;;;4963507;29;20358;-68
2022/12/25 10:12:08;;;;;;;1.42;1.33;;;17.30;53.60;;;;;;4963292;29;20046;-67
2022/12/25 10:15:13;;;;;;;1.33;1.15;;;17.30;53.60;;;;;;4963494;29;20023;-66
2022/12/25 10:18:03;;;;;;;1.48;1.30;;;17.40;53.60;;;;;;4963284;29;20168;-66
2022/12/25 10:20:50;;;;;;;1.10;1.05;;;17.40;53.70;;;;;;4963118;29;20019;-68
2022/12/25 10:23:43;;;;;;;1.50;0.95;;;17.40;53.50;;;;;;4963262;29;20031;-68
2022/12/25 10:26:19;;;;;;;1.70;1.25;;;17.40;53.60;;;;;;4942805;29;20027;-67
2022/12/25 10:28:50;;;;;;;1.55;1.20;;;17.40;53.50;;;;;;4963257;29;20027;-68
2022/12/25 10:31:18;;;;;;;1.63;1.50;;;17.40;53.60;;;;;;4963158;29;20075;-68
2022/12/25 10:33:45;;;;;;;1.23;1.13;;;17.40;53.70;;;;;;4962970;29;20556;-66
2022/12/25 10:36:12;;;;;;;1.50;1.20;;;17.50;53.70;;;;;;4963009;29;20038;-67
2022/12/25 10:38:38;;;;;;;1.20;1.10;;;17.50;53.60;;;;;;4962887;29;20091;-67
2022/12/25 10:41:26;;;;;;;1.27;1.17;;;17.40;53.60;;;;;;4963067;29;20023;-66
2022/12/25 10:43:56;;;;;;;1.23;1.10;;;17.50;53.60;;;;;;4963106;29;20035;-69
2022/12/25 10:46:25;;;;;;;1.38;1.27;;;17.40;53.70;;;;;;4962956;29;20066;-69
2022/12/25 10:49:01;;;;;;;1.30;1.20;;;17.50;53.70;;;;;;4962939;29;20426;-67
2022/12/25 10:51:37;;;;;;;1.92;1.67;;;17.50;53.70;;;;;;4962762;29;20035;-69
2022/12/25 10:54:27;;;;;;;1.30;1.20;;;17.50;53.70;;;;;;4962381;29;20050;-70
2022/12/25 10:57:01;;;;;;;2.13;1.33;;;17.50;53.70;;;;;;4962705;29;20035;-68
2022/12/25 10:59:32;;;;;;;1.50;1.27;;;17.50;53.80;;;;;;4962751;29;20027;-66
2022/12/25 11:02:12;;;;;;;1.85;1.40;;;17.50;53.70;;;;;;4962850;29;20088;-67
2022/12/25 11:04:38;;;;;;;0.95;0.95;;;17.50;53.60;;;;;;4962671;29;20031;-66
2022/12/25 11:07:06;;;;;;;1.15;1.05;;;17.50;53.70;;;;;;4962585;29;20059;-67
2022/12/25 11:09:32;;;;;;;1.30;1.20;;;17.50;53.70;;;;;;4962858;29;20049;-67
2022/12/25 11:11:59;;;;;;;1.27;1.17;;;17.50;53.70;;;;;;4962768;29;20270;-68
2022/12/25 11:14:26;;;;;;;1.27;1.15;;;17.60;53.70;;;;;;4962705;29;20046;-68
2022/12/25 11:16:53;;;;;;;1.38;1.20;;;17.60;53.80;;;;;;4962503;29;20324;-66
2022/12/25 11:19:30;;;;;;;1.10;1.00;;;17.50;53.70;;;;;;4962456;29;20027;-68
2022/12/25 11:21:58;;;;;;;1.20;1.10;;;17.60;53.80;;;;;;4962533;29;20069;-67
2022/12/25 11:24:26;;;;;;;1.45;1.35;;;17.60;53.70;;;;;;4962584;29;20034;-70
2022/12/25 11:26:55;;;;;;;1.50;1.40;;;17.60;53.70;;;;;;4962490;29;20027;-67
2022/12/25 11:29:42;;;;;;;1.25;1.10;;;17.60;53.80;;;;;;4962570;29;20085;-68
2022/12/25 11:32:19;;;;;;;1.58;1.27;;;17.60;53.60;;;;;;4962458;29;20034;-67
2022/12/25 11:34:47;;;;;;;1.25;1.15;;;17.60;53.50;;;;;;4962414;29;20049;-67
2022/12/25 11:37:42;;;;;;;1.73;1.20;;;17.60;53.60;;;;;;4962447;29;20034;-67
2022/12/25 11:40:23;;;;;;;1.20;1.10;;;17.60;53.70;;;;;;4954621;29;20338;-67
2022/12/25 11:42:55;;;;;;;2.63;1.50;;;17.50;53.60;;;;;;4962239;29;20451;-67
2022/12/25 11:45:30;;;;;;;1.30;1.17;;;17.50;53.70;;;;;;4962493;29;20023;-67
2022/12/25 11:48:18;;;;;;;1.10;1.00;;;17.50;53.70;;;;;;4962358;29;20030;-66
2022/12/25 11:50:50;;;;;;;1.80;1.40;;;17.50;53.70;;;;;;4962369;29;20042;-66
2022/12/25 11:53:21;;;;;;;1.38;1.27;;;17.50;53.70;;;;;;4962399;29;20030;-67
2022/12/25 11:55:53;;;;;;;1.13;1.02;;;17.50;53.70;;;;;;4962183;29;20053;-68
2022/12/25 11:58:44;;;;;;;1.08;0.90;;;17.50;53.60;;;;;;4962380;29;20073;-68
2022/12/25 12:01:42;;;;;;;1.48;1.27;;;17.50;53.80;;;;;;4962130;29;20307;-67
2022/12/25 12:04:14;;;;;;;;;;;17.50;53.80;;;;;;4964412;28;20313;-67
2022/12/25 12:07:17;;;;;;;1.40;1.17;;;17.50;53.80;;;;;;4965486;29;19919;-68
2022/12/25 12:10:09;;;;;;;1.42;1.30;;;17.50;53.90;;;;;;4965636;29;20240;-67
2022/12/25 12:13:06;;;;;;;1.38;1.27;;;17.40;53.90;;;;;;4965589;29;20027;-68
2022/12/25 12:15:42;;;;;;;1.75;1.33;;;17.40;53.80;;;;;;4964218;29;20142;-67
2022/12/25 12:18:29;;;;;;;1.27;1.17;;;17.40;53.80;;;;;;4965409;29;20023;-68
2022/12/25 12:21:30;;;;;;;1.33;1.23;;;17.40;53.90;;;;;;4965268;29;20034;-67
2022/12/25 12:24:11;;;;;;;1.30;1.20;;;17.40;54.00;;;;;;4943874;29;20035;-67
2022/12/25 12:26:40;;;;;;;1.85;1.23;;;17.40;53.90;;;;;;4963011;29;20046;-68
2022/12/25 12:29:23;;;;;;;1.17;1.08;;;17.40;53.90;;;;;;4965383;29;20031;-67
2022/12/25 12:31:50;;;;;;;1.27;1.17;;;17.40;54.00;;;;;;4965302;29;20031;-69
2022/12/25 12:34:28;;;;;;;1.40;1.30;;;17.40;53.90;;;;;;4965062;29;20097;-68
2022/12/25 12:37:06;;;;;;;1.50;1.37;;;17.40;53.80;;;;;;4965043;29;20031;-68
2022/12/25 12:39:38;;;;;;;1.15;1.00;;;17.40;53.70;;;;;;4964978;29;20245;-66
2022/12/25 12:42:21;;;;;;;1.45;1.35;;;17.60;53.50;;;;;;4964945;29;20023;-66
2022/12/25 12:44:49;;;;;;;1.10;1.00;;;17.70;53.00;;;;;;4964781;29;20023;-67
2022/12/25 12:47:41;;;;;;;1.60;1.10;;;17.70;53.00;;;;;;4964943;29;20030;-67
2022/12/25 12:50:31;;;;;;;0.90;0.90;;;17.60;53.10;;;;;;4964713;29;20211;-67
2022/12/25 12:52:58;;;;;;;1.63;1.38;;;17.70;53.00;;;;;;4964718;29;20023;-68
2022/12/25 12:55:34;;;;;;;1.30;1.08;;;17.80;52.70;;;;;;4964473;29;20334;-68
2022/12/25 12:58:04;;;;;;;1.25;1.15;;;17.90;52.60;;;;;;4964565;29;20059;-69
2022/12/25 13:01:12;;;;;;;1.73;1.40;;;18.00;52.30;;;;;;4964652;29;20053;-66
2022/12/25 13:03:58;;;;;;;1.20;1.02;;;18.50;51.30;;;;;;4964529;29;20023;-67
2022/12/25 13:06:30;;;;;;;1.50;1.40;;;18.80;50.40;;;;;;4964259;29;20050;-66
2022/12/25 13:09:19;;;;;;;1.52;1.40;;;19.00;50.10;;;;;;4964481;29;20054;-69
2022/12/25 13:11:46;;;;;;;1.90;1.13;;;19.00;49.70;;;;;;4964464;29;20066;-66
2022/12/25 13:14:15;;;;;;;0.80;0.80;;;18.90;50.00;;;;;;4964280;29;20034;-68
2022/12/25 13:16:44;;;;;;;1.15;1.05;;;18.80;50.20;;;;;;4963572;28;20034;-68
2022/12/25 13:19:18;;;;;;;1.05;0.95;;;18.70;50.60;;;;;;4964294;29;20027;-67
2022/12/25 13:22:30;;;;;;;2.42;1.10;;;18.60;50.80;;;;;;4964244;29;20259;-67
2022/12/25 13:25:03;;;;;;;1.20;1.13;;;18.50;51.00;;;;;;4963561;29;20042;-69
2022/12/25 13:27:31;;;;;;;1.02;0.90;;;18.30;51.40;;;;;;4964014;29;20066;-68
2022/12/25 13:29:58;;;;;;;0.93;0.85;;;18.10;52.10;;;;;;4963987;29;20031;-68
2022/12/25 13:32:30;;;;;;;1.30;1.20;;;17.90;52.60;;;;;;4963860;29;20022;-68
2022/12/25 13:34:57;;;;;;;1.20;1.10;;;17.80;52.80;;;;;;4963797;29;20038;-68
2022/12/25 13:37:29;;;;;;;0.98;0.93;;;17.80;53.00;;;;;;4963675;29;20394;-70
2022/12/25 13:39:58;;;;;;;1.48;1.00;;;17.70;53.10;;;;;;4963739;29;20227;-69
2022/12/25 13:42:31;;;;;;;1.00;0.90;;;17.70;53.10;;;;;;4963721;29;20069;-70
2022/12/25 13:45:00;;;;;;;1.00;0.90;;;17.70;53.20;;;;;;4963697;29;20283;-68
2022/12/25 13:47:31;;;;;;;1.20;1.10;;;17.60;53.20;;;;;;4963632;29;20035;-69
2022/12/25 13:49:59;;;;;;;0.88;0.88;;;17.60;53.20;;;;;;4963656;29;20079;-68
2022/12/25 13:52:36;;;;;;;1.40;1.30;;;17.60;53.40;;;;;;4963603;29;20192;-68
2022/12/25 13:55:09;;;;;;;1.27;1.17;;;17.60;53.40;;;;;;4963686;29;20031;-70
2022/12/25 13:57:39;;;;;;;1.65;1.30;;;17.60;53.60;;;;;;4963916;29;20027;-71
2022/12/25 14:00:07;;;;;;;1.30;1.13;;;17.60;53.40;;;;;;4963600;29;20482;-69
2022/12/25 14:02:37;;;;;;;1.33;1.17;;;17.60;53.40;;;;;;4963484;29;20540;-69
2022/12/25 14:05:21;;;;;;;1.58;1.13;;;17.60;53.50;;;;;;4963287;29;20027;-69
2022/12/25 14:07:58;;;;;;;1.50;1.15;;;18.00;52.80;;;;;;4962992;29;20048;-69
2022/12/25 14:10:28;;;;;;;1.58;1.13;;;18.20;51.90;;;;;;4963239;29;20099;-68
2022/12/25 14:12:58;;;;;;;1.33;1.10;;;18.10;52.70;;;;;;4963305;29;20015;-68
2022/12/25 14:15:30;;;;;;;1.05;0.98;;;18.10;52.40;;;;;;4963036;29;20031;-70
2022/12/25 14:17:57;;;;;;;1.27;1.17;;;18.00;52.70;;;;;;4963341;29;20054;-68
2022/12/25 14:20:27;;;;;;;1.27;1.15;;;18.00;52.80;;;;;;4963041;29;20215;-69
2022/12/25 14:22:55;;;;;;;1.30;1.00;;;17.90;52.90;;;;;;4963054;29;20027;-69
2022/12/25 14:25:26;;;;;;;1.50;1.40;;;17.90;53.10;;;;;;4963037;29;20094;-69
2022/12/25 14:27:52;;;;;;;2.15;1.20;;;17.80;53.30;;;;;;4962171;28;20031;-69
2022/12/25 14:30:18;;;;;;;1.08;0.98;;;17.70;53.50;;;;;;4962957;29;20390;-69
2022/12/25 14:32:49;;;;;;;1.20;0.90;;;17.60;53.70;;;;;;4962957;29;20023;-68
2022/12/25 14:35:16;;;;;;;1.02;0.98;;;17.50;53.80;;;;;;4963136;29;20079;-73
2022/12/25 14:37:42;;;;;;;1.33;1.10;;;17.50;53.90;;;;;;4962931;29;20410;-68
2022/12/25 14:40:29;;;;;;;1.25;1.15;;;17.50;53.90;;;;;;4962961;29;20027;-70
2022/12/25 14:43:04;;;;;;;1.15;1.05;;;17.50;54.00;;;;;;4962844;29;20027;-68
2022/12/25 14:45:37;;;;;;;0.80;0.70;;;17.50;54.00;;;;;;4962832;29;20045;-68
2022/12/25 14:48:20;;;;;;;1.30;1.20;;;17.40;54.00;;;;;;4962810;29;20026;-69
2022/12/25 14:50:58;;;;;;;1.23;1.00;;;17.50;54.10;;;;;;4962734;29;20099;-70
2022/12/25 14:53:45;;;;;;;1.27;1.15;;;17.40;54.20;;;;;;4962744;29;20035;-68
2022/12/25 14:56:17;;;;;;;0.80;0.80;;;17.40;54.20;;;;;;4962545;29;20094;-68
2022/12/25 14:58:48;;;;;;;0.80;0.77;;;17.40;54.10;;;;;;4962743;29;20233;-69
2022/12/25 15:01:37;;;;;;;0.93;0.90;;;17.40;54.20;;;;;;4962683;29;20030;-69
2022/12/25 15:04:14;;;;;;;1.10;1.00;;;17.40;54.10;;;;;;4962694;29;20099;-69
2022/12/25 15:06:50;;;;;;;1.10;1.00;;;17.40;54.20;;;;;;4962498;29;20053;-68
2022/12/25 15:09:17;;;;;;;1.00;0.82;;;17.40;54.20;;;;;;4962481;29;20043;-70
2022/12/25 15:11:54;;;;;;;1.13;1.00;;;17.30;54.20;;;;;;4962447;29;20027;-69
2022/12/25 15:14:21;;;;;;;1.30;1.20;;;17.30;54.20;;;;;;4962491;29;20027;-69
2022/12/25 15:16:51;;;;;;;1.33;0.98;;;17.30;54.30;;;;;;4962339;29;20027;-69
2022/12/25 15:19:34;;;;;;;0.90;0.90;;;17.30;54.40;;;;;;4962598;29;20019;-69
2022/12/25 15:22:01;;;;;;;1.08;0.98;;;17.20;54.30;;;;;;4962709;29;20094;-72
2022/12/25 15:24:27;;;;;;;1.10;1.02;;;17.30;54.40;;;;;;4962306;29;20027;-70
2022/12/25 15:26:54;;;;;;;1.05;0.98;;;17.20;54.40;;;;;;4962320;29;20034;-68
2022/12/25 15:29:20;;;;;;;1.10;1.00;;;17.30;54.50;;;;;;4962384;29;20033;-69
2022/12/25 15:31:46;;;;;;;0.80;0.80;;;17.30;54.40;;;;;;4962054;29;20026;-69
2022/12/25 15:34:16;;;;;;;1.00;1.00;;;17.30;54.30;;;;;;4962431;29;20082;-68
2022/12/25 15:36:42;;;;;;;0.75;0.75;;;17.40;54.20;;;;;;4962155;29;20031;-71
2022/12/25 15:39:08;;;;;;;2.63;1.05;;;17.50;53.90;;;;;;4962727;28;20393;-69
2022/12/25 15:44:23;;;;;;;1.17;1.05;;;17.60;53.60;;;;;;4966220;29;20050;-70
2022/12/25 15:46:50;;;;;;;1.40;1.20;;;17.60;53.50;;;;;;4965968;29;20031;-69
2022/12/25 15:49:16;;;;;;;1.10;1.00;;;17.60;53.50;;;;;;4965800;29;20216;-70
2022/12/25 15:51:43;;;;;;;1.40;1.00;;;17.60;53.40;;;;;;4965856;29;20023;-68
2022/12/25 15:54:10;;;;;;;1.23;1.13;;;17.70;53.50;;;;;;4965578;29;20263;-68
2022/12/25 15:56:41;;;;;;;1.10;0.85;;;17.70;53.40;;;;;;4965744;29;20026;-70
2022/12/25 15:59:12;;;;;;;1.30;1.20;;;17.70;53.30;;;;;;4965775;29;20387;-71
2022/12/25 16:01:42;;;;;;;1.50;0.95;;;17.70;53.30;;;;;;4965654;29;20247;-69
2022/12/25 16:04:08;;;;;;;2.60;1.48;;;17.60;53.50;;;;;;4965807;29;20019;-69
2022/12/25 16:06:34;;;;;;;1.27;1.00;;;17.60;53.70;;;;;;4965352;29;20058;-69
2022/12/25 16:08:59;;;;;;;1.17;0.80;;;17.60;53.70;;;;;;4965508;29;20031;-70
2022/12/25 16:11:25;;;;;;;0.80;0.80;;;17.50;53.70;;;;;;4965333;29;20374;-69
2022/12/25 16:13:51;;;;;;;1.17;0.90;;;17.50;53.80;;;;;;4965505;29;20094;-69
2022/12/25 16:16:17;;;;;;;1.05;0.90;;;17.50;53.90;;;;;;4965332;29;20023;-71
2022/12/25 16:18:43;;;;;;;1.17;1.08;;;17.50;53.80;;;;;;4965331;29;20220;-70
2022/12/25 16:21:12;;;;;;;1.30;0.93;;;17.50;54.00;;;;;;4965317;29;20078;-69
2022/12/25 16:23:38;;;;;;;1.00;0.90;;;17.50;54.10;;;;;;4965226;29;20046;-69
2022/12/25 16:26:04;;;;;;;1.20;1.10;;;17.40;54.20;;;;;;4965275;29;20051;-69
2022/12/25 16:28:30;;;;;;;1.27;1.10;;;17.40;54.30;;;;;;4965080;29;20027;-70
2022/12/25 16:30:56;;;;;;;1.23;1.13;;;17.30;54.30;;;;;;4964929;29;20058;-71
2022/12/25 16:33:22;;;;;;;1.40;1.30;;;17.30;54.40;;;;;;4965138;29;20260;-70
2022/12/25 16:35:49;;;;;;;0.90;0.90;;;17.30;54.40;;;;;;4965100;29;20196;-68
2022/12/25 16:38:15;;;;;;;0.98;0.88;;;17.30;54.40;;;;;;4964987;29;20035;-72
2022/12/25 16:40:42;;;;;;;1.73;1.30;;;17.20;54.50;;;;;;4963519;29;20530;-69
2022/12/25 16:43:08;;;;;;;1.40;1.30;;;17.30;54.50;;;;;;4964776;29;20022;-69
2022/12/25 16:45:38;;;;;;;1.25;0.98;;;17.20;54.40;;;;;;4964895;29;20219;-69
2022/12/25 16:48:05;;;;;;;1.20;1.00;;;17.30;54.50;;;;;;4964851;29;20038;-69
2022/12/25 16:50:31;;;;;;;1.40;1.20;;;17.20;54.40;;;;;;4963651;28;20110;-69
2022/12/25 16:52:56;;;;;;;1.55;1.23;;;17.20;54.40;;;;;;4964683;29;20430;-69
2022/12/25 16:55:22;;;;;;;1.15;1.00;;;17.20;54.50;;;;;;4964518;29;20090;-69
2022/12/25 16:57:50;;;;;;;1.13;1.05;;;17.20;54.50;;;;;;4964590;29;20105;-69
2022/12/25 17:00:17;;;;;;;1.30;1.20;;;17.10;54.50;;;;;;4964501;29;20023;-70
2022/12/25 17:02:43;;;;;;;1.23;1.13;;;17.10;55.10;;;;;;4964424;29;20031;-69
2022/12/25 17:05:09;;;;;;;1.08;0.98;;;17.20;54.50;;;;;;4964410;29;20081;-69
2022/12/25 17:07:36;;;;;;;1.17;1.08;;;17.20;54.40;;;;;;4964350;29;20067;-69
2022/12/25 17:10:03;;;;;;;2.83;1.73;;;17.30;54.30;;;;;;4964481;29;20019;-69
2022/12/25 17:12:29;;;;;;;1.38;1.20;;;17.30;54.20;;;;;;4964392;29;20304;-69
2022/12/25 17:14:55;;;;;;;0.90;0.90;;;17.40;54.00;;;;;;4964354;29;20038;-69
2022/12/25 17:17:21;;;;;;;0.95;0.95;;;17.50;53.90;;;;;;4964272;29;20335;-69
2022/12/25 17:19:47;;;;;;;1.15;1.05;;;17.50;53.70;;;;;;4964334;29;20030;-68
2022/12/25 17:22:12;;;;;;;1.33;1.23;;;17.50;53.60;;;;;;4964284;29;20031;-69
2022/12/25 17:24:40;;;;;;;1.83;1.17;;;17.60;53.70;;;;;;4964070;29;20027;-69
2022/12/25 17:27:10;;;;;;;0.70;0.70;;;17.60;53.50;;;;;;4962858;29;20129;-69
2022/12/25 17:29:38;;;;;;;0.82;0.82;;;17.60;53.40;;;;;;4964052;29;20031;-69
2022/12/25 17:32:08;;;;;;;1.25;1.15;;;17.60;53.50;;;;;;4964047;29;20019;-70
2022/12/25 17:34:34;;;;;;;1.30;1.10;;;17.50;54.20;;;;;;4964038;29;20031;-70
2022/12/25 17:37:00;;;;;;;1.30;0.98;;;17.50;53.60;;;;;;4963728;29;20050;-71
2022/12/25 17:39:26;;;;;;;1.05;1.00;;;17.50;53.50;;;;;;4963921;29;20331;-70
2022/12/25 17:41:52;;;;;;;1.00;0.90;;;17.50;53.60;;;;;;4963752;29;20027;-69
2022/12/25 17:44:19;;;;;;;1.10;1.00;;;17.40;53.70;;;;;;4963658;29;20082;-71
2022/12/25 17:46:46;;;;;;;1.13;1.02;;;17.40;53.90;;;;;;4946405;29;20027;-70
2022/12/25 17:49:17;;;;;;;1.35;1.02;;;17.40;53.90;;;;;;4963697;29;20338;-70
2022/12/25 17:51:44;;;;;;;1.55;1.08;;;17.40;54.10;;;;;;4963719;29;20070;-70
2022/12/25 17:54:10;;;;;;;0.90;0.90;;;17.30;54.10;;;;;;4963511;29;20023;-69
2022/12/25 17:56:36;;;;;;;1.63;1.35;;;17.30;54.20;;;;;;4963552;29;20347;-69
2022/12/25 17:59:09;;;;;;;1.08;1.00;;;17.20;54.40;;;;;;4963548;29;20037;-69
2022/12/25 18:01:37;;;;;;;0.98;0.88;;;17.20;54.40;;;;;;4963379;28;20062;-69
2022/12/25 18:04:04;;;;;;;0.80;0.80;;;17.20;54.50;;;;;;4963620;29;20011;-68
2022/12/25 18:06:34;;;;;;;1.27;1.00;;;17.20;54.50;;;;;;4963443;29;20030;-70
2022/12/25 18:09:00;;;;;;;1.10;1.00;;;17.20;54.50;;;;;;4963511;29;20030;-69
2022/12/25 18:11:31;;;;;;;0.98;0.90;;;17.20;54.50;;;;;;4963432;29;20066;-68
2022/12/25 18:14:00;;;;;;;1.48;0.90;;;17.10;54.40;;;;;;4963472;29;20082;-71
2022/12/25 18:16:28;;;;;;;0.80;0.80;;;17.20;54.50;;;;;;4963227;29;20033;-69
2022/12/25 18:18:54;;;;;;;1.10;1.00;;;17.20;54.50;;;;;;4963258;29;20516;-69
2022/12/25 18:21:21;;;;;;;1.23;1.13;;;17.20;54.60;;;;;;4962000;29;20027;-70
2022/12/25 18:23:47;;;;;;;1.20;0.80;;;17.10;54.60;;;;;;4963126;29;20082;-69
2022/12/25 18:26:13;;;;;;;1.10;1.00;;;17.10;54.60;;;;;;4963211;29;20046;-70
2022/12/25 18:28:41;;;;;;;1.42;0.98;;;17.10;54.50;;;;;;4963093;29;20334;-70
2022/12/25 18:31:24;;;;;;;0.95;0.85;;;17.10;54.50;;;;;;4963156;29;20027;-69
2022/12/25 18:33:51;;;;;;;1.80;1.30;;;17.20;54.50;;;;;;4963051;29;20019;-68
2022/12/25 18:36:22;;;;;;;1.15;1.08;;;17.20;54.40;;;;;;4962866;29;20031;-70
2022/12/25 18:38:50;;;;;;;1.85;1.30;;;17.30;54.30;;;;;;4961679;29;20038;-69
2022/12/25 18:41:16;;;;;;;1.50;0.95;;;17.30;54.00;;;;;;4963018;29;20303;-69
2022/12/25 18:43:42;;;;;;;1.00;0.90;;;17.40;53.80;;;;;;4962994;29;20101;-69
2022/12/25 18:46:08;;;;;;;1.08;0.98;;;17.40;53.80;;;;;;4962988;29;20330;-70
2022/12/25 18:48:35;;;;;;;0.90;0.90;;;17.40;54.00;;;;;;4962957;29;20042;-70
2022/12/25 18:51:07;;;;;;;0.98;0.90;;;17.40;54.00;;;;;;4962883;29;20259;-69
2022/12/25 18:53:33;;;;;;;1.27;1.17;;;17.40;53.90;;;;;;4962871;29;20030;-69
2022/12/25 18:56:25;;;;;;;1.17;0.95;;;17.40;53.80;;;;;;4962755;29;20215;-70
2022/12/25 18:58:51;;;;;;;1.05;0.98;;;17.40;53.90;;;;;;4961662;29;20027;-69
2022/12/25 19:01:22;;;;;;;1.25;1.13;;;17.40;54.00;;;;;;4962766;29;20031;-69
2022/12/25 19:03:48;;;;;;;1.20;1.10;;;17.30;54.10;;;;;;4962807;29;20042;-69
2022/12/25 19:06:19;;;;;;;0.82;0.80;;;17.30;54.20;;;;;;4962712;29;20031;-70
2022/12/25 19:08:46;;;;;;;1.73;1.00;;;17.20;54.60;;;;;;4962874;29;20496;-69
2022/12/25 19:11:12;;;;;;;0.80;0.80;;;17.10;54.80;;;;;;4962773;29;20055;-69
2022/12/25 19:13:38;;;;;;;1.30;0.95;;;17.10;55.00;;;;;;4963751;28;20035;-69
2022/12/25 19:16:04;;;;;;;1.15;1.02;;;17.00;55.10;;;;;;4966642;29;20027;-69
2022/12/25 19:18:30;;;;;;;2.22;1.00;;;17.00;55.20;;;;;;4966605;29;20027;-69
2022/12/25 19:21:00;;;;;;;1.13;1.02;;;17.00;55.20;;;;;;4966443;29;20023;-70
2022/12/25 19:23:25;;;;;;;1.10;0.95;;;16.90;55.20;;;;;;4949357;29;20031;-69
2022/12/25 19:25:51;;;;;;;1.10;1.00;;;16.90;55.20;;;;;;4966419;29;20071;-69
2022/12/25 19:28:17;;;;;;;1.00;0.90;;;17.00;55.10;;;;;;4966426;29;20039;-70
2022/12/25 19:30:43;;;;;;;1.20;1.10;;;17.00;55.00;;;;;;4966372;29;20033;-69
2022/12/25 19:33:09;;;;;;;0.80;0.80;;;17.00;54.90;;;;;;4966420;29;20066;-71
2022/12/25 19:35:39;;;;;;;0.85;0.77;;;17.00;54.80;;;;;;4966272;29;20023;-70
2022/12/25 19:38:05;;;;;;;1.30;1.20;;;17.00;55.40;;;;;;4949186;29;20102;-70
2022/12/25 19:40:34;;;;;;;1.05;0.90;;;17.00;54.80;;;;;;4966136;29;20042;-69
2022/12/25 19:43:00;;;;;;;1.17;0.77;;;17.00;54.80;;;;;;4966100;29;20023;-69
2022/12/25 19:45:26;;;;;;;1.10;0.98;;;17.00;54.90;;;;;;4966107;29;20546;-70
2022/12/25 19:47:52;;;;;;;1.38;1.17;;;17.00;54.90;;;;;;4966018;29;20027;-69
2022/12/25 19:50:18;;;;;;;2.17;1.27;;;17.00;54.80;;;;;;4965917;29;20033;-69
2022/12/25 19:52:43;;;;;;;0.80;0.80;;;17.00;54.70;;;;;;4965800;29;20066;-69
2022/12/25 19:55:09;;;;;;;1.20;1.10;;;17.00;54.70;;;;;;4965898;29;20342;-69
2022/12/25 19:57:35;;;;;;;0.98;0.90;;;17.00;54.60;;;;;;4965868;29;20092;-68
2022/12/25 20:00:01;;;;;;;1.17;1.00;;;17.00;54.60;;;;;;4965800;29;20023;-71
2022/12/25 20:02:27;;;;;;;0.85;0.80;;;17.00;54.60;;;;;;4965677;29;20031;-70
2022/12/25 20:04:53;;;;;;;0.90;0.90;;;17.00;54.60;;;;;;4965597;29;20046;-69
2022/12/25 20:07:18;;;;;;;1.20;1.10;;;17.10;54.60;;;;;;4965552;29;20066;-69
2022/12/25 20:09:44;;;;;;;0.77;0.77;;;17.20;54.60;;;;;;4965680;29;20054;-70
2022/12/25 20:12:13;;;;;;;1.25;1.15;;;17.20;54.30;;;;;;4965422;29;20058;-68
2022/12/25 20:14:39;;;;;;;1.02;0.90;;;17.30;54.20;;;;;;4965517;29;20027;-70
2022/12/25 20:17:05;;;;;;;1.17;1.08;;;17.30;53.90;;;;;;4965380;29;20374;-70
2022/12/25 20:19:30;;;;;;;1.20;1.10;;;17.40;53.90;;;;;;4965287;29;20017;-70
2022/12/25 20:21:57;;;;;;;1.30;1.10;;;17.40;53.90;;;;;;4965364;29;20031;-69
2022/12/25 20:24:23;;;;;;;1.17;1.08;;;17.40;54.00;;;;;;4965221;28;20015;-69
2022/12/25 20:26:49;;;;;;;1.08;0.98;;;17.40;54.10;;;;;;4965108;29;20357;-71
2022/12/25 20:29:15;;;;;;;0.98;0.93;;;17.30;54.20;;;;;;4965231;29;20058;-70
2022/12/25 20:31:40;;;;;;;1.17;1.10;;;17.30;54.30;;;;;;4965140;29;20031;-68
2022/12/25 20:34:09;;;;;;;0.93;0.70;;;17.30;54.30;;;;;;4965153;29;20303;-68
2022/12/25 20:36:35;;;;;;;0.90;0.90;;;17.30;54.30;;;;;;4965029;29;20035;-69
2022/12/25 20:39:00;;;;;;;1.20;1.05;;;17.30;54.30;;;;;;4964972;29;20034;-70
2022/12/25 20:41:27;;;;;;;0.93;0.90;;;17.30;54.20;;;;;;4965072;29;20475;-68
2022/12/25 20:43:53;;;;;;;2.00;1.20;;;17.30;54.40;;;;;;4964957;29;20216;-70
2022/12/25 20:46:19;;;;;;;1.50;1.05;;;17.20;54.40;;;;;;4964872;29;20027;-69
2022/12/25 20:48:45;;;;;;;1.15;1.05;;;17.20;54.50;;;;;;4964940;29;20103;-69
2022/12/25 20:51:16;;;;;;;1.00;0.90;;;17.20;54.60;;;;;;4964833;29;20038;-69
2022/12/25 20:53:42;;;;;;;1.23;1.13;;;17.10;54.90;;;;;;4964822;29;20034;-71
2022/12/25 20:56:10;;;;;;;1.10;1.00;;;17.10;55.00;;;;;;4964683;29;20033;-68
2022/12/25 20:58:36;;;;;;;1.23;1.13;;;17.00;55.10;;;;;;4964745;29;20066;-69
2022/12/25 21:01:07;;;;;;;1.33;1.02;;;17.00;55.20;;;;;;4964564;29;20090;-68
2022/12/25 21:03:34;;;;;;;0.90;0.90;;;17.00;55.30;;;;;;4964623;29;20038;-69
2022/12/25 21:06:00;;;;;;;1.10;1.00;;;16.90;55.30;;;;;;4964519;29;20222;-70
2022/12/25 21:08:27;;;;;;;1.25;0.93;;;16.90;55.30;;;;;;4964413;29;20054;-69
2022/12/25 21:10:59;;;;;;;1.90;1.40;;;16.90;55.30;;;;;;4964341;29;20035;-69
2022/12/25 21:13:27;;;;;;;1.35;1.00;;;16.90;55.30;;;;;;4964462;29;20389;-69
2022/12/25 21:15:53;;;;;;;1.02;0.95;;;16.90;55.20;;;;;;4964320;29;20026;-70
2022/12/25 21:18:21;;;;;;;0.70;0.70;;;17.00;55.20;;;;;;4964284;29;20027;-71
2022/12/25 21:20:49;;;;;;;1.10;1.00;;;17.00;55.20;;;;;;4964073;29;20027;-69
2022/12/25 21:23:16;;;;;;;1.17;1.02;;;17.00;55.10;;;;;;4964299;29;20031;-68
2022/12/25 21:25:42;;;;;;;1.42;0.95;;;17.00;55.00;;;;;;4964224;29;20057;-70
2022/12/25 21:28:07;;;;;;;1.30;1.20;;;17.00;54.80;;;;;;4964193;29;20310;-68
2022/12/25 21:30:34;;;;;;;1.30;1.02;;;17.00;54.90;;;;;;4964160;29;20046;-70
2022/12/25 21:35:44;;;;;;;1.58;1.25;;;17.10;54.80;;;;;;4963955;28;20030;-69
2022/12/25 21:38:10;;;;;;;1.35;1.00;;;17.20;54.70;;;;;;4963601;29;20051;-68
2022/12/25 21:40:37;;;;;;;1.52;1.08;;;17.30;54.40;;;;;;4963909;29;20628;-69
2022/12/25 21:43:03;;;;;;;1.35;1.10;;;17.40;54.20;;;;;;4963760;29;20062;-68
2022/12/25 21:45:29;;;;;;;1.25;0.90;;;17.40;54.00;;;;;;4963576;29;20034;-70
2022/12/25 21:47:56;;;;;;;1.20;1.10;;;17.40;54.00;;;;;;4963749;29;20036;-68
2022/12/25 21:53:07;;;;;;;1.90;1.00;;;17.40;54.10;;;;;;4963666;29;20117;-69
2022/12/25 21:55:33;;;;;;;1.55;0.95;;;17.30;54.30;;;;;;4963467;29;20055;-69
2022/12/25 21:58:00;;;;;;;0.93;0.93;;;17.30;54.40;;;;;;4963564;29;20326;-69
2022/12/25 22:00:26;;;;;;;1.63;1.10;;;17.20;54.50;;;;;;4963604;29;20035;-68
2022/12/25 22:02:52;;;;;;;1.90;1.30;;;17.10;54.70;;;;;;4962220;29;20425;-69
2022/12/25 22:08:22;;;;;;;1.10;1.00;;;17.20;54.70;;;;;;4922976;29;20082;-70
2022/12/25 22:10:48;;;;;;;1.25;1.00;;;17.20;54.50;;;;;;4923019;29;20342;-68
2022/12/25 22:21:31;;;;;;;1.00;0.90;;;17.00;55.20;;;;;;4963216;29;20127;-69
2022/12/25 22:23:57;;;;;;;1.35;1.02;;;17.00;55.20;;;;;;4963143;29;20030;-68
